sensor_id;sensor_type;location;lat;lon;timestamp;pressure;altitude;pressure_sealevel;temperature;humidity
75298;BME280;63896;45.990;18.688;2023-08-01T00:02:56;100213.59;;;16.91;100.00
75298;BME280;63896;45.990;18.688;2023-08-01T00:05:59;100204.72;;;16.86;100.00
75298;BME280;63896;45.990;18.688;2023-08-01T00:09:02;100200.97;;;16.87;100.00
75298;BME280;63896;45.990;18.688;2023-08-01T00:12:05;100201.47;;;16.84;100.00
75298;BME280;63896;45.990;18.688;2023-08-01T00:15:09;100206.00;;;16.78;100.00
75298;BME280;63896;45.990;18.688;2023-08-01T00:18:12;100202.22;;;16.74;100.00
75298;BME280;63896;45.990;18.688;2023-08-01T00:21:15;100200.06;;;16.71;100.00
75298;BME280;63896;45.990;18.688;2023-08-01T00:24:18;100192.56;;;16.68;100.00
75298;BME280;63896;45.990;18.688;2023-08-01T00:27:21;100190.38;;;16.65;100.00
75298;BME280;63896;45.990;18.688;2023-08-01T00:30:25;100189.56;;;16.64;100.00
75298;BME280;63896;45.990;18.688;2023-08-01T00:33:29;100184.22;;;16.64;100.00
75298;BME280;63896;45.990;18.688;2023-08-01T00:36:31;100181.53;;;16.64;100.00
75298;BME280;63896;45.990;18.688;2023-08-01T00:39:34;100181.81;;;16.63;100.00
75298;BME280;63896;45.990;18.688;2023-08-01T00:42:37;100172.97;;;16.62;100.00
75298;BME280;63896;45.990;18.688;2023-08-01T00:45:40;100168.69;;;16.66;100.00
75298;BME280;63896;45.990;18.688;2023-08-01T00:48:44;100171.63;;;16.65;100.00
75298;BME280;63896;45.990;18.688;2023-08-01T00:51:47;100171.06;;;16.58;100.00
75298;BME280;63896;45.990;18.688;2023-08-01T00:54:50;100172.88;;;16.52;100.00
75298;BME280;63896;45.990;18.688;2023-08-01T00:57:53;100167.22;;;16.49;100.00
75298;BME280;63896;45.990;18.688;2023-08-01T01:00:57;100163.69;;;16.43;100.00
75298;BME280;63896;45.990;18.688;2023-08-01T01:04:00;100161.50;;;16.35;100.00
75298;BME280;63896;45.990;18.688;2023-08-01T01:07:06;100154.00;;;16.32;100.00
75298;BME280;63896;45.990;18.688;2023-08-01T01:10:09;100164.66;;;16.27;100.00
75298;BME280;63896;45.990;18.688;2023-08-01T01:13:12;100154.72;;;16.23;100.00
75298;BME280;63896;45.990;18.688;2023-08-01T01:16:15;100149.63;;;16.21;100.00
75298;BME280;63896;45.990;18.688;2023-08-01T01:19:18;100157.38;;;16.23;100.00
75298;BME280;63896;45.990;18.688;2023-08-01T01:22:21;100161.16;;;16.22;100.00
75298;BME280;63896;45.990;18.688;2023-08-01T01:25:25;100169.19;;;16.22;100.00
75298;BME280;63896;45.990;18.688;2023-08-01T01:28:28;100156.00;;;16.15;100.00
75298;BME280;63896;45.990;18.688;2023-08-01T01:31:33;100163.78;;;16.16;100.00
75298;BME280;63896;45.990;18.688;2023-08-01T01:34:36;100151.72;;;16.14;100.00
75298;BME280;63896;45.990;18.688;2023-08-01T01:37:39;100150.91;;;16.13;100.00
75298;BME280;63896;45.990;18.688;2023-08-01T01:40:42;100150.09;;;16.13;100.00
75298;BME280;63896;45.990;18.688;2023-08-01T01:43:45;100144.19;;;16.11;100.00
75298;BME280;63896;45.990;18.688;2023-08-01T01:46:48;100143.38;;;16.10;100.00
75298;BME280;63896;45.990;18.688;2023-08-01T01:49:52;100146.03;;;16.10;100.00
75298;BME280;63896;45.990;18.688;2023-08-01T01:52:55;100147.41;;;16.13;100.00
75298;BME280;63896;45.990;18.688;2023-08-01T01:55:57;100146.91;;;16.16;100.00
75298;BME280;63896;45.990;18.688;2023-08-01T01:59:01;100141.56;;;16.16;100.00
75298;BME280;63896;45.990;18.688;2023-08-01T02:02:04;100139.41;;;16.13;100.00
75298;BME280;63896;45.990;18.688;2023-08-01T02:05:07;100144.16;;;16.06;100.00
75298;BME280;63896;45.990;18.688;2023-08-01T02:08:10;100142.25;;;16.01;100.00
75298;BME280;63896;45.990;18.688;2023-08-01T02:11:13;100143.00;;;15.97;100.00
75298;BME280;63896;45.990;18.688;2023-08-01T02:14:16;100141.59;;;15.89;100.00
75298;BME280;63896;45.990;18.688;2023-08-01T02:17:19;100142.94;;;15.92;100.00
75298;BME280;63896;45.990;18.688;2023-08-01T02:20:21;100148.22;;;15.82;100.00
75298;BME280;63896;45.990;18.688;2023-08-01T02:23:24;100145.72;;;15.70;100.00
75298;BME280;63896;45.990;18.688;2023-08-01T02:26:27;100143.78;;;15.65;100.00
75298;BME280;63896;45.990;18.688;2023-08-01T02:29:31;100133.81;;;15.56;100.00
75298;BME280;63896;45.990;18.688;2023-08-01T02:32:34;100144.38;;;15.46;100.00
75298;BME280;63896;45.990;18.688;2023-08-01T02:35:37;100137.06;;;15.36;100.00
75298;BME280;63896;45.990;18.688;2023-08-01T02:38:40;100129.22;;;15.30;100.00
75298;BME280;63896;45.990;18.688;2023-08-01T02:41:43;100125.69;;;15.24;100.00
75298;BME280;63896;45.990;18.688;2023-08-01T02:44:46;100130.75;;;15.20;100.00
75298;BME280;63896;45.990;18.688;2023-08-01T02:47:48;100137.13;;;15.19;100.00
75298;BME280;63896;45.990;18.688;2023-08-01T02:50:51;100133.13;;;15.17;100.00
75298;BME280;63896;45.990;18.688;2023-08-01T02:53:54;100127.19;;;15.15;100.00
75298;BME280;63896;45.990;18.688;2023-08-01T02:56:57;100120.81;;;15.16;100.00
75298;BME280;63896;45.990;18.688;2023-08-01T03:00:00;100122.66;;;15.15;100.00
75298;BME280;63896;45.990;18.688;2023-08-01T03:03:02;100115.69;;;15.14;100.00
75298;BME280;63896;45.990;18.688;2023-08-01T03:06:06;100108.25;;;15.16;100.00
75298;BME280;63896;45.990;18.688;2023-08-01T03:09:10;100099.97;;;15.18;100.00
75298;BME280;63896;45.990;18.688;2023-08-01T03:12:13;100105.31;;;15.18;100.00
75298;BME280;63896;45.990;18.688;2023-08-01T03:15:16;100093.56;;;15.19;100.00
75298;BME280;63896;45.990;18.688;2023-08-01T03:18:19;100091.72;;;15.19;100.00
75298;BME280;63896;45.990;18.688;2023-08-01T03:21:22;100083.44;;;15.21;100.00
75298;BME280;63896;45.990;18.688;2023-08-01T03:24:25;100076.53;;;15.25;100.00
75298;BME280;63896;45.990;18.688;2023-08-01T03:27:28;100078.41;;;15.24;100.00
75298;BME280;63896;45.990;18.688;2023-08-01T03:30:33;100073.91;;;15.30;100.00
75298;BME280;63896;45.990;18.688;2023-08-01T03:33:36;100075.28;;;15.33;100.00
75298;BME280;63896;45.990;18.688;2023-08-01T03:36:39;100063.94;;;15.20;100.00
75298;BME280;63896;45.990;18.688;2023-08-01T03:39:43;100072.69;;;15.16;100.00
75298;BME280;63896;45.990;18.688;2023-08-01T03:42:46;100075.59;;;15.14;100.00
75298;BME280;63896;45.990;18.688;2023-08-01T03:45:49;100076.94;;;15.12;100.00
75298;BME280;63896;45.990;18.688;2023-08-01T03:48:52;100083.31;;;15.11;100.00
75298;BME280;63896;45.990;18.688;2023-08-01T03:51:55;100085.69;;;15.07;100.00
75298;BME280;63896;45.990;18.688;2023-08-01T03:55:01;100082.50;;;15.10;100.00
75298;BME280;63896;45.990;18.688;2023-08-01T03:58:04;100078.84;;;15.16;100.00
75298;BME280;63896;45.990;18.688;2023-08-01T04:01:07;100079.97;;;15.20;100.00
75298;BME280;63896;45.990;18.688;2023-08-01T04:04:10;100083.25;;;15.27;100.00
75298;BME280;63896;45.990;18.688;2023-08-01T04:07:13;100067.28;;;15.38;100.00
75298;BME280;63896;45.990;18.688;2023-08-01T04:10:16;100074.13;;;15.50;100.00
75298;BME280;63896;45.990;18.688;2023-08-01T04:13:19;100070.75;;;15.60;100.00
75298;BME280;63896;45.990;18.688;2023-08-01T04:16:22;100078.38;;;15.78;100.00
75298;BME280;63896;45.990;18.688;2023-08-01T04:19:25;100070.47;;;15.93;100.00
75298;BME280;63896;45.990;18.688;2023-08-01T04:22:28;100071.38;;;16.09;100.00
75298;BME280;63896;45.990;18.688;2023-08-01T04:25:31;100069.31;;;16.26;100.00
75298;BME280;63896;45.990;18.688;2023-08-01T04:28:34;100070.78;;;16.44;100.00
75298;BME280;63896;45.990;18.688;2023-08-01T04:31:37;100075.19;;;16.60;100.00
75298;BME280;63896;45.990;18.688;2023-08-01T04:34:41;100071.31;;;16.98;100.00
75298;BME280;63896;45.990;18.688;2023-08-01T04:37:43;100067.09;;;17.47;100.00
75298;BME280;63896;45.990;18.688;2023-08-01T04:40:46;100070.34;;;17.85;100.00
75298;BME280;63896;45.990;18.688;2023-08-01T04:43:49;100067.84;;;18.39;100.00
75298;BME280;63896;45.990;18.688;2023-08-01T04:46:52;100070.66;;;18.88;100.00
75298;BME280;63896;45.990;18.688;2023-08-01T04:49:54;100063.06;;;19.39;100.00
75298;BME280;63896;45.990;18.688;2023-08-01T04:52:57;100064.50;;;19.99;100.00
75298;BME280;63896;45.990;18.688;2023-08-01T04:56:00;100061.88;;;20.18;98.91
75298;BME280;63896;45.990;18.688;2023-08-01T04:59:03;100066.34;;;20.32;96.83
75298;BME280;63896;45.990;18.688;2023-08-01T05:02:06;100067.00;;;20.90;93.88
75298;BME280;63896;45.990;18.688;2023-08-01T05:05:08;100068.19;;;21.41;91.32
75298;BME280;63896;45.990;18.688;2023-08-01T05:08:11;100064.25;;;21.84;89.32
75298;BME280;63896;45.990;18.688;2023-08-01T05:11:14;100052.25;;;21.90;88.41
75298;BME280;63896;45.990;18.688;2023-08-01T05:14:17;100047.94;;;22.08;87.79
75298;BME280;63896;45.990;18.688;2023-08-01T05:17:20;100042.72;;;22.66;86.13
75298;BME280;63896;45.990;18.688;2023-08-01T05:20:22;100047.63;;;23.27;79.88
75298;BME280;63896;45.990;18.688;2023-08-01T05:23:25;100044.28;;;23.08;76.98
75298;BME280;63896;45.990;18.688;2023-08-01T05:26:28;100051.16;;;22.78;75.29
75298;BME280;63896;45.990;18.688;2023-08-01T05:29:31;100043.13;;;23.22;75.26
75298;BME280;63896;45.990;18.688;2023-08-01T05:32:33;100046.09;;;23.12;74.74
75298;BME280;63896;45.990;18.688;2023-08-01T05:35:37;100045.44;;;22.79;76.01
75298;BME280;63896;45.990;18.688;2023-08-01T05:38:39;100040.78;;;21.98;79.35
75298;BME280;63896;45.990;18.688;2023-08-01T05:41:43;100045.50;;;22.06;78.62
75298;BME280;63896;45.990;18.688;2023-08-01T05:44:45;100039.41;;;22.01;80.14
75298;BME280;63896;45.990;18.688;2023-08-01T05:47:48;100035.94;;;22.27;79.00
75298;BME280;63896;45.990;18.688;2023-08-01T05:50:51;100043.53;;;22.53;76.93
75298;BME280;63896;45.990;18.688;2023-08-01T05:53:55;100036.53;;;22.65;77.58
75298;BME280;63896;45.990;18.688;2023-08-01T05:56:58;100039.41;;;22.55;77.05
75298;BME280;63896;45.990;18.688;2023-08-01T06:00:02;100033.22;;;22.68;77.28
75298;BME280;63896;45.990;18.688;2023-08-01T06:03:13;100036.19;;;22.94;77.08
75298;BME280;63896;45.990;18.688;2023-08-01T06:06:18;100027.41;;;23.24;75.26
75298;BME280;63896;45.990;18.688;2023-08-01T06:09:21;100038.63;;;23.40;75.06
75298;BME280;63896;45.990;18.688;2023-08-01T06:12:25;100023.41;;;23.66;74.20
75298;BME280;63896;45.990;18.688;2023-08-01T06:15:28;100019.34;;;23.78;72.99
75298;BME280;63896;45.990;18.688;2023-08-01T06:18:31;100025.56;;;24.09;71.77
75298;BME280;63896;45.990;18.688;2023-08-01T06:21:34;100027.13;;;24.01;71.14
75298;BME280;63896;45.990;18.688;2023-08-01T06:24:37;100020.09;;;23.47;72.16
75298;BME280;63896;45.990;18.688;2023-08-01T06:27:41;100023.06;;;23.90;70.68
75298;BME280;63896;45.990;18.688;2023-08-01T06:31:05;100016.41;;;24.27;68.30
75298;BME280;63896;45.990;18.688;2023-08-01T06:34:09;100017.28;;;24.53;67.92
75298;BME280;63896;45.990;18.688;2023-08-01T06:37:11;100001.88;;;24.88;65.41
75298;BME280;63896;45.990;18.688;2023-08-01T06:40:14;100010.34;;;25.12;65.05
75298;BME280;63896;45.990;18.688;2023-08-01T06:43:18;99998.19;;;25.27;64.67
75298;BME280;63896;45.990;18.688;2023-08-01T06:46:26;100000.38;;;25.68;62.88
75298;BME280;63896;45.990;18.688;2023-08-01T06:49:29;100006.81;;;25.64;60.83
75298;BME280;63896;45.990;18.688;2023-08-01T06:52:32;100000.34;;;25.85;60.35
75298;BME280;63896;45.990;18.688;2023-08-01T06:55:35;100008.47;;;26.02;58.15
75298;BME280;63896;45.990;18.688;2023-08-01T06:58:37;99994.00;;;26.11;58.83
75298;BME280;63896;45.990;18.688;2023-08-01T07:01:41;99985.97;;;26.23;57.93
75298;BME280;63896;45.990;18.688;2023-08-01T07:04:45;99986.03;;;26.43;57.88
75298;BME280;63896;45.990;18.688;2023-08-01T07:07:48;99979.91;;;26.26;57.79
75298;BME280;63896;45.990;18.688;2023-08-01T07:10:51;99977.63;;;26.28;56.67
75298;BME280;63896;45.990;18.688;2023-08-01T07:13:54;99980.50;;;26.81;55.62
75298;BME280;63896;45.990;18.688;2023-08-01T07:16:57;99979.25;;;26.79;54.82
75298;BME280;63896;45.990;18.688;2023-08-01T07:20:00;99968.91;;;28.16;51.49
75298;BME280;63896;45.990;18.688;2023-08-01T07:23:03;99969.03;;;28.31;49.89
75298;BME280;63896;45.990;18.688;2023-08-01T07:26:05;99961.47;;;28.65;48.18
75298;BME280;63896;45.990;18.688;2023-08-01T07:29:08;99960.44;;;29.09;45.92
75298;BME280;63896;45.990;18.688;2023-08-01T07:32:14;99961.78;;;29.43;45.04
75298;BME280;63896;45.990;18.688;2023-08-01T07:35:18;99963.56;;;30.80;42.62
75298;BME280;63896;45.990;18.688;2023-08-01T07:38:20;99955.38;;;31.41;40.79
75298;BME280;63896;45.990;18.688;2023-08-01T07:41:23;99954.97;;;31.39;40.25
75298;BME280;63896;45.990;18.688;2023-08-01T07:44:26;99957.25;;;31.56;39.72
75298;BME280;63896;45.990;18.688;2023-08-01T07:47:29;99959.94;;;31.76;40.04
75298;BME280;63896;45.990;18.688;2023-08-01T07:50:32;99953.56;;;32.17;39.13
75298;BME280;63896;45.990;18.688;2023-08-01T07:53:35;99951.28;;;32.49;37.71
75298;BME280;63896;45.990;18.688;2023-08-01T07:56:38;99947.19;;;31.87;39.05
75298;BME280;63896;45.990;18.688;2023-08-01T07:59:41;99935.75;;;32.30;38.67
75298;BME280;63896;45.990;18.688;2023-08-01T08:02:45;99945.06;;;31.77;39.53
75298;BME280;63896;45.990;18.688;2023-08-01T08:05:49;99935.84;;;32.11;38.22
75298;BME280;63896;45.990;18.688;2023-08-01T08:08:51;99942.19;;;31.92;38.23
75298;BME280;63896;45.990;18.688;2023-08-01T08:11:54;99937.81;;;32.40;37.03
75298;BME280;63896;45.990;18.688;2023-08-01T08:14:59;99932.16;;;33.56;35.09
75298;BME280;63896;45.990;18.688;2023-08-01T08:18:02;99939.22;;;32.83;36.02
75298;BME280;63896;45.990;18.688;2023-08-01T08:21:07;99922.81;;;33.64;35.47
75298;BME280;63896;45.990;18.688;2023-08-01T08:24:10;99922.66;;;33.90;33.69
75298;BME280;63896;45.990;18.688;2023-08-01T08:27:13;99921.56;;;33.58;34.03
75298;BME280;63896;45.990;18.688;2023-08-01T08:30:16;99918.41;;;33.16;35.12
75298;BME280;63896;45.990;18.688;2023-08-01T08:33:21;99932.59;;;32.88;35.32
75298;BME280;63896;45.990;18.688;2023-08-01T08:36:24;99927.50;;;32.86;34.80
75298;BME280;63896;45.990;18.688;2023-08-01T08:39:27;99921.34;;;31.65;37.73
75298;BME280;63896;45.990;18.688;2023-08-01T08:42:33;99909.53;;;33.33;34.20
75298;BME280;63896;45.990;18.688;2023-08-01T08:45:40;99910.72;;;34.27;33.00
75298;BME280;63896;45.990;18.688;2023-08-01T08:48:44;99912.38;;;34.42;32.12
75298;BME280;63896;45.990;18.688;2023-08-01T08:51:49;99909.91;;;34.23;32.55
75298;BME280;63896;45.990;18.688;2023-08-01T08:54:52;99906.72;;;35.04;31.38
75298;BME280;63896;45.990;18.688;2023-08-01T08:57:56;99902.16;;;34.42;31.82
75298;BME280;63896;45.990;18.688;2023-08-01T09:01:02;99910.34;;;33.37;32.54
75298;BME280;63896;45.990;18.688;2023-08-01T09:04:06;99893.94;;;34.57;30.78
75298;BME280;63896;45.990;18.688;2023-08-01T09:07:10;99908.00;;;35.20;29.54
75298;BME280;63896;45.990;18.688;2023-08-01T09:10:14;99909.59;;;35.92;28.98
75298;BME280;63896;45.990;18.688;2023-08-01T09:13:17;99898.16;;;35.55;29.10
75298;BME280;63896;45.990;18.688;2023-08-01T09:16:20;99886.28;;;36.25;28.45
75298;BME280;63896;45.990;18.688;2023-08-01T09:19:24;99884.34;;;35.97;29.07
75298;BME280;63896;45.990;18.688;2023-08-01T09:22:53;99887.13;;;36.18;28.28
75298;BME280;63896;45.990;18.688;2023-08-01T09:26:17;99871.66;;;36.35;28.25
75298;BME280;63896;45.990;18.688;2023-08-01T09:29:20;99861.03;;;36.30;27.91
75298;BME280;63896;45.990;18.688;2023-08-01T09:32:23;99868.53;;;36.26;28.60
75298;BME280;63896;45.990;18.688;2023-08-01T09:35:26;99859.88;;;35.96;28.22
75298;BME280;63896;45.990;18.688;2023-08-01T09:38:34;99860.00;;;36.83;27.14
75298;BME280;63896;45.990;18.688;2023-08-01T09:41:37;99855.41;;;36.51;27.05
75298;BME280;63896;45.990;18.688;2023-08-01T09:44:45;99851.50;;;37.66;26.05
75298;BME280;63896;45.990;18.688;2023-08-01T09:47:49;99840.81;;;37.20;26.70
75298;BME280;63896;45.990;18.688;2023-08-01T09:51:03;99846.28;;;36.61;27.64
75298;BME280;63896;45.990;18.688;2023-08-01T09:54:07;99832.09;;;37.73;25.81
75298;BME280;63896;45.990;18.688;2023-08-01T09:57:10;99827.13;;;36.95;26.25
75298;BME280;63896;45.990;18.688;2023-08-01T10:00:14;99824.09;;;37.34;26.25
75298;BME280;63896;45.990;18.688;2023-08-01T10:03:17;99827.41;;;37.63;25.43
75298;BME280;63896;45.990;18.688;2023-08-01T10:06:28;99819.38;;;38.13;25.03
75298;BME280;63896;45.990;18.688;2023-08-01T10:09:33;99819.00;;;37.29;25.67
75298;BME280;63896;45.990;18.688;2023-08-01T10:12:38;99811.63;;;37.08;25.72
75298;BME280;63896;45.990;18.688;2023-08-01T10:15:43;99804.22;;;36.95;26.30
75298;BME280;63896;45.990;18.688;2023-08-01T10:18:46;99811.59;;;37.15;25.99
75298;BME280;63896;45.990;18.688;2023-08-01T10:21:50;99790.84;;;38.16;24.53
75298;BME280;63896;45.990;18.688;2023-08-01T10:24:57;99796.00;;;38.75;24.17
75298;BME280;63896;45.990;18.688;2023-08-01T10:28:01;99789.13;;;37.54;25.84
75298;BME280;63896;45.990;18.688;2023-08-01T10:31:13;99780.22;;;37.74;24.96
75298;BME280;63896;45.990;18.688;2023-08-01T10:34:16;99784.50;;;36.86;25.18
75298;BME280;63896;45.990;18.688;2023-08-01T10:37:19;99777.53;;;38.04;23.91
75298;BME280;63896;45.990;18.688;2023-08-01T10:40:35;99766.69;;;38.17;23.69
75298;BME280;63896;45.990;18.688;2023-08-01T10:43:39;99768.44;;;38.03;23.63
75298;BME280;63896;45.990;18.688;2023-08-01T10:47:01;99766.38;;;37.74;24.26
75298;BME280;63896;45.990;18.688;2023-08-01T10:50:13;99752.59;;;37.26;25.40
75298;BME280;63896;45.990;18.688;2023-08-01T10:53:16;99750.69;;;35.56;27.12
75298;BME280;63896;45.990;18.688;2023-08-01T10:56:19;99748.72;;;34.96;28.44
75298;BME280;63896;45.990;18.688;2023-08-01T10:59:23;99747.94;;;34.81;28.55
75298;BME280;63896;45.990;18.688;2023-08-01T11:02:27;99739.91;;;34.27;29.23
75298;BME280;63896;45.990;18.688;2023-08-01T11:05:31;99736.09;;;33.66;29.50
75298;BME280;63896;45.990;18.688;2023-08-01T11:08:37;99733.69;;;35.82;27.02
75298;BME280;63896;45.990;18.688;2023-08-01T11:11:40;99715.78;;;38.03;25.00
75298;BME280;63896;45.990;18.688;2023-08-01T11:14:43;99708.78;;;37.61;25.47
75298;BME280;63896;45.990;18.688;2023-08-01T11:17:52;99707.75;;;34.84;28.60
75298;BME280;63896;45.990;18.688;2023-08-01T11:20:55;99703.44;;;34.86;28.38
75298;BME280;63896;45.990;18.688;2023-08-01T11:23:58;99694.56;;;35.94;26.92
75298;BME280;63896;45.990;18.688;2023-08-01T11:27:01;99689.41;;;36.72;26.18
75298;BME280;63896;45.990;18.688;2023-08-01T11:30:04;99681.94;;;35.97;26.01
75298;BME280;63896;45.990;18.688;2023-08-01T11:33:21;99682.22;;;36.20;25.79
75298;BME280;63896;45.990;18.688;2023-08-01T11:36:28;99677.44;;;34.84;28.09
75298;BME280;63896;45.990;18.688;2023-08-01T11:39:31;99669.53;;;34.72;29.01
75298;BME280;63896;45.990;18.688;2023-08-01T11:42:34;99667.31;;;33.66;28.64
75298;BME280;63896;45.990;18.688;2023-08-01T11:45:37;99660.09;;;33.44;29.96
75298;BME280;63896;45.990;18.688;2023-08-01T11:48:44;99660.09;;;33.47;31.08
75298;BME280;63896;45.990;18.688;2023-08-01T11:51:49;99662.97;;;33.69;30.27
75298;BME280;63896;45.990;18.688;2023-08-01T11:54:52;99660.00;;;33.33;31.31
75298;BME280;63896;45.990;18.688;2023-08-01T11:57:58;99652.88;;;33.25;30.80
75298;BME280;63896;45.990;18.688;2023-08-01T12:01:09;99656.13;;;34.28;29.49
75298;BME280;63896;45.990;18.688;2023-08-01T12:04:24;99648.19;;;35.47;28.53
75298;BME280;63896;45.990;18.688;2023-08-01T12:07:28;99640.13;;;36.60;26.82
75298;BME280;63896;45.990;18.688;2023-08-01T12:10:42;99627.72;;;35.41;27.91
75298;BME280;63896;45.990;18.688;2023-08-01T12:13:45;99618.56;;;33.67;30.11
75298;BME280;63896;45.990;18.688;2023-08-01T12:16:48;99613.09;;;33.88;30.96
75298;BME280;63896;45.990;18.688;2023-08-01T12:19:51;99610.00;;;34.00;31.71
75298;BME280;63896;45.990;18.688;2023-08-01T12:22:54;99600.25;;;32.25;34.07
75298;BME280;63896;45.990;18.688;2023-08-01T12:25:57;99586.41;;;32.58;33.48
75298;BME280;63896;45.990;18.688;2023-08-01T12:28:59;99582.66;;;33.42;32.96
75298;BME280;63896;45.990;18.688;2023-08-01T12:32:03;99582.31;;;32.82;34.21
75298;BME280;63896;45.990;18.688;2023-08-01T12:35:06;99580.41;;;33.72;32.60
75298;BME280;63896;45.990;18.688;2023-08-01T12:38:09;99582.38;;;33.65;33.06
75298;BME280;63896;45.990;18.688;2023-08-01T12:41:12;99578.72;;;32.30;35.27
75298;BME280;63896;45.990;18.688;2023-08-01T12:44:15;99570.59;;;32.00;36.30
75298;BME280;63896;45.990;18.688;2023-08-01T12:47:19;99569.75;;;31.59;36.42
75298;BME280;63896;45.990;18.688;2023-08-01T12:50:22;99567.16;;;32.07;36.40
75298;BME280;63896;45.990;18.688;2023-08-01T12:53:25;99567.72;;;32.27;35.13
75298;BME280;63896;45.990;18.688;2023-08-01T12:56:33;99569.41;;;33.72;33.56
75298;BME280;63896;45.990;18.688;2023-08-01T12:59:36;99562.44;;;34.77;31.21
75298;BME280;63896;45.990;18.688;2023-08-01T13:02:39;99555.31;;;35.95;27.47
75298;BME280;63896;45.990;18.688;2023-08-01T13:05:42;99552.63;;;34.44;30.33
75298;BME280;63896;45.990;18.688;2023-08-01T13:08:45;99558.13;;;34.23;29.71
75298;BME280;63896;45.990;18.688;2023-08-01T13:11:50;99538.34;;;35.17;29.42
75298;BME280;63896;45.990;18.688;2023-08-01T13:14:54;99532.91;;;34.78;30.10
75298;BME280;63896;45.990;18.688;2023-08-01T13:18:17;99526.22;;;34.72;30.20
75298;BME280;63896;45.990;18.688;2023-08-01T13:21:22;99516.13;;;33.15;32.33
75298;BME280;63896;45.990;18.688;2023-08-01T13:24:24;99522.66;;;32.89;32.67
75298;BME280;63896;45.990;18.688;2023-08-01T13:27:27;99525.69;;;33.57;32.70
75298;BME280;63896;45.990;18.688;2023-08-01T13:30:30;99524.09;;;33.41;31.95
75298;BME280;63896;45.990;18.688;2023-08-01T13:33:33;99516.28;;;34.99;28.82
75298;BME280;63896;45.990;18.688;2023-08-01T13:36:36;99513.50;;;35.10;28.84
75298;BME280;63896;45.990;18.688;2023-08-01T13:39:39;99512.44;;;34.51;28.36
75298;BME280;63896;45.990;18.688;2023-08-01T13:42:42;99510.88;;;33.79;30.71
75298;BME280;63896;45.990;18.688;2023-08-01T13:45:45;99512.75;;;32.71;31.05
75298;BME280;63896;45.990;18.688;2023-08-01T13:48:48;99505.91;;;32.50;31.58
75298;BME280;63896;45.990;18.688;2023-08-01T13:51:50;99507.66;;;32.73;31.59
75298;BME280;63896;45.990;18.688;2023-08-01T13:54:53;99515.44;;;33.39;31.45
75298;BME280;63896;45.990;18.688;2023-08-01T13:57:56;99506.53;;;32.84;31.73
75298;BME280;63896;45.990;18.688;2023-08-01T14:01:06;99497.72;;;33.26;31.08
75298;BME280;63896;45.990;18.688;2023-08-01T14:04:10;99496.00;;;32.93;32.13
75298;BME280;63896;45.990;18.688;2023-08-01T14:07:15;99499.47;;;32.87;31.01
75298;BME280;63896;45.990;18.688;2023-08-01T14:10:18;99495.19;;;32.89;31.11
75298;BME280;63896;45.990;18.688;2023-08-01T14:13:21;99475.13;;;32.24;31.83
75298;BME280;63896;45.990;18.688;2023-08-01T14:16:24;99476.56;;;31.33;33.32
75298;BME280;63896;45.990;18.688;2023-08-01T14:19:27;99476.44;;;31.56;33.02
75298;BME280;63896;45.990;18.688;2023-08-01T14:22:32;99478.44;;;31.59;33.48
75298;BME280;63896;45.990;18.688;2023-08-01T14:25:35;99472.97;;;31.26;32.94
75298;BME280;63896;45.990;18.688;2023-08-01T14:28:38;99456.16;;;31.27;34.18
75298;BME280;63896;45.990;18.688;2023-08-01T14:31:40;99461.88;;;30.85;33.79
75298;BME280;63896;45.990;18.688;2023-08-01T14:34:43;99461.88;;;30.85;33.40
75298;BME280;63896;45.990;18.688;2023-08-01T14:37:46;99460.25;;;30.81;34.26
75298;BME280;63896;45.990;18.688;2023-08-01T14:40:53;99461.97;;;30.13;35.20
75298;BME280;63896;45.990;18.688;2023-08-01T14:44:16;99452.66;;;29.92;36.07
75298;BME280;63896;45.990;18.688;2023-08-01T14:47:20;99445.53;;;29.87;36.87
75298;BME280;63896;45.990;18.688;2023-08-01T14:50:23;99439.47;;;30.01;37.24
75298;BME280;63896;45.990;18.688;2023-08-01T14:53:26;99437.22;;;29.84;38.13
75298;BME280;63896;45.990;18.688;2023-08-01T14:56:29;99438.03;;;29.84;38.46
75298;BME280;63896;45.990;18.688;2023-08-01T14:59:32;99434.44;;;30.03;38.48
75298;BME280;63896;45.990;18.688;2023-08-01T15:02:35;99444.31;;;30.34;37.38
75298;BME280;63896;45.990;18.688;2023-08-01T15:05:37;99444.41;;;30.14;37.71
75298;BME280;63896;45.990;18.688;2023-08-01T15:08:41;99446.56;;;30.28;37.54
75298;BME280;63896;45.990;18.688;2023-08-01T15:11:44;99435.13;;;30.45;37.32
75298;BME280;63896;45.990;18.688;2023-08-01T15:14:47;99448.25;;;30.62;37.79
75298;BME280;63896;45.990;18.688;2023-08-01T15:17:49;99445.91;;;30.35;38.04
75298;BME280;63896;45.990;18.688;2023-08-01T15:20:53;99441.84;;;30.51;37.99
75298;BME280;63896;45.990;18.688;2023-08-01T15:23:55;99435.94;;;30.23;39.34
75298;BME280;63896;45.990;18.688;2023-08-01T15:26:58;99435.97;;;30.49;38.21
75298;BME280;63896;45.990;18.688;2023-08-01T15:30:03;99423.56;;;30.06;39.21
75298;BME280;63896;45.990;18.688;2023-08-01T15:33:05;99418.06;;;30.59;38.19
75298;BME280;63896;45.990;18.688;2023-08-01T15:36:10;99413.16;;;30.71;39.40
75298;BME280;63896;45.990;18.688;2023-08-01T15:39:15;99427.00;;;30.52;39.58
75298;BME280;63896;45.990;18.688;2023-08-01T15:42:29;99432.19;;;30.91;38.10
75298;BME280;63896;45.990;18.688;2023-08-01T15:45:37;99426.94;;;31.05;37.59
75298;BME280;63896;45.990;18.688;2023-08-01T15:48:40;99416.28;;;31.37;36.88
75298;BME280;63896;45.990;18.688;2023-08-01T15:51:46;99405.63;;;30.95;37.29
75298;BME280;63896;45.990;18.688;2023-08-01T15:54:49;99412.16;;;31.16;36.77